Time;durP1;ratioP1;P1;durP2;ratioP2;P2;SDS_P1;SDS_P2;PMS_P1;PMS_P2;Temp;Humidity;BMP_temperature;BMP_pressure;BME280_temperature;BME280_humidity;BME280_pressure;Samples;Min_cycle;Max_cycle;Signal;HPM_P1;HPM_P2
2023/04/21 00:01:28;;;;;;;12.83;8.80;;;11.70;76.90;;;14.11;54.90;101843.06;5034404;28;20880;-58
2023/04/21 00:03:55;;;;;;;10.80;9.03;;;11.70;76.90;;;14.11;54.79;101843.91;5034057;28;20218;-58
2023/04/21 00:06:22;;;;;;;12.90;9.53;;;11.60;76.90;;;14.12;54.77;101844.72;5037478;28;20187;-58
2023/04/21 00:08:49;;;;;;;13.37;8.53;;;11.60;77.00;;;14.11;54.81;101840.41;5035683;28;20199;-60
2023/04/21 00:11:17;;;;;;;10.90;8.30;;;11.60;77.00;;;14.11;54.77;101837.75;5035665;28;20201;-58
2023/04/21 00:13:44;;;;;;;12.40;8.57;;;11.60;77.10;;;14.12;54.79;101836.78;5035036;28;20195;-59
2023/04/21 00:16:12;;;;;;;11.43;9.40;;;11.60;77.00;;;14.11;54.67;101835.13;5035509;28;20679;-59
2023/04/21 00:18:39;;;;;;;11.17;8.80;;;11.60;77.00;;;14.11;54.74;101835.94;5035118;28;20202;-59
2023/04/21 00:21:07;;;;;;;9.50;8.27;;;11.50;76.80;;;14.07;54.76;101828.53;5035319;28;20222;-59
2023/04/21 00:23:34;;;;;;;11.87;8.70;;;11.50;77.00;;;14.05;54.78;101825.19;5050700;28;20250;-56
2023/04/21 00:26:01;;;;;;;9.97;8.53;;;11.50;76.90;;;14.05;54.78;101827.84;5034771;28;20687;-58
2023/04/21 00:28:29;;;;;;;10.73;8.40;;;11.50;77.00;;;14.07;54.79;101823.22;5032885;28;20202;-59
2023/04/21 00:30:56;;;;;;;11.33;7.67;;;11.50;77.00;;;14.08;54.65;101814.28;5034042;28;20197;-59
2023/04/21 00:33:25;;;;;;;13.37;8.70;;;11.50;77.10;;;14.10;54.64;101812.28;5033790;28;20219;-58
2023/04/21 00:35:53;;;;;;;9.97;7.97;;;11.50;77.10;;;14.08;54.63;101808.97;5032731;28;20690;-58
2023/04/21 00:38:20;;;;;;;13.63;8.43;;;11.50;77.10;;;14.08;54.60;101819.56;5034194;28;20194;-56
2023/04/21 00:40:47;;;;;;;11.47;8.60;;;11.50;77.10;;;14.09;54.77;101815.94;5034127;28;20210;-59
2023/04/21 00:43:14;;;;;;;12.87;8.60;;;11.50;77.00;;;14.08;54.78;101817.75;5034071;28;20647;-58
2023/04/21 00:45:44;;;;;;;12.00;9.67;;;11.50;77.10;;;14.05;54.60;101814.59;5033759;28;20210;-57
2023/04/21 00:48:11;;;;;;;10.13;9.13;;;11.50;77.00;;;14.04;54.61;101815.63;5034665;28;20290;-59
2023/04/21 00:50:40;;;;;;;9.70;8.70;;;11.50;76.90;;;14.03;54.73;101811.31;5049366;28;20667;-59
2023/04/21 00:53:08;;;;;;;9.77;8.53;;;11.50;76.90;;;14.00;54.69;101801.09;5034433;28;20627;-59
2023/04/21 00:55:35;;;;;;;11.23;9.03;;;11.50;76.90;;;13.94;54.50;101805.22;5049337;28;20210;-58
2023/04/21 00:58:03;;;;;;;14.40;8.57;;;11.50;76.80;;;13.91;54.82;101804.72;5033748;28;20540;-57
2023/04/21 01:00:30;;;;;;;11.00;8.60;;;11.40;76.80;;;13.90;54.80;101805.72;5033608;28;20245;-57
2023/04/21 01:03:00;;;;;;;11.77;9.27;;;11.40;76.90;;;13.88;54.80;101805.09;5034130;28;20229;-57
2023/04/21 01:05:27;;;;;;;11.33;8.60;;;11.40;76.90;;;13.87;54.78;101803.41;5040338;28;20210;-56
2023/04/21 01:07:55;;;;;;;13.40;9.07;;;11.40;77.10;;;13.86;54.74;101793.84;5040552;28;20199;-55
2023/04/21 01:10:23;;;;;;;13.63;8.67;;;11.40;76.90;;;13.85;54.83;101792.19;5055284;28;20694;-57
2023/04/21 01:12:49;;;;;;;12.20;9.60;;;11.30;76.90;;;13.85;54.86;101805.41;5040319;28;20200;-59
2023/04/21 01:15:17;;;;;;;11.50;8.63;;;11.30;77.00;;;13.82;54.77;101787.22;5039892;28;20210;-56
2023/04/21 01:17:44;;;;;;;11.10;8.90;;;11.30;77.10;;;13.78;54.86;101788.56;5040170;28;20196;-57
2023/04/21 01:20:14;;;;;;;18.47;8.40;;;11.30;77.10;;;13.77;54.42;101795.66;5040029;28;20194;-58
2023/04/21 01:22:43;;;;;;;11.83;9.50;;;11.20;77.10;;;13.75;54.83;101781.78;5024601;28;20194;-58
2023/04/21 01:25:10;;;;;;;12.07;8.80;;;11.20;77.10;;;13.74;54.96;101790.72;5039613;28;20222;-58
2023/04/21 01:27:37;;;;;;;13.07;8.57;;;11.20;77.20;;;13.68;55.03;101775.53;5040057;28;20195;-57
2023/04/21 01:30:08;;;;;;;11.03;8.13;;;11.20;77.90;;;13.64;54.85;101789.25;5039775;28;20198;-57
2023/04/21 01:32:35;;;;;;;12.63;9.47;;;11.10;77.20;;;13.60;55.06;101778.16;5039671;28;20599;-56
2023/04/21 01:35:05;;;;;;;9.90;8.60;;;11.10;77.30;;;13.60;55.29;101787.94;5038986;28;20686;-56
2023/04/21 01:37:33;;;;;;;12.50;9.00;;;11.10;77.30;;;13.60;55.17;101772.09;5038594;28;20655;-57
2023/04/21 01:40:06;;;;;;;14.30;9.17;;;11.10;77.50;;;13.54;54.97;101773.56;5039091;28;20574;-58
2023/04/21 01:42:35;;;;;;;11.13;8.50;;;11.10;77.40;;;13.54;55.16;101784.16;5040085;28;20510;-55
2023/04/21 01:45:03;;;;;;;13.27;8.50;;;11.00;77.50;;;13.50;55.36;101775.72;5039363;28;20328;-59
2023/04/21 01:47:30;;;;;;;10.83;8.50;;;11.00;77.40;;;13.50;55.32;101767.78;5039636;28;20713;-55
2023/04/21 01:49:59;;;;;;;11.77;8.83;;;11.00;77.50;;;13.48;55.21;101777.69;5039365;28;20571;-58
2023/04/21 01:52:26;;;;;;;10.60;8.17;;;11.00;77.60;;;13.48;55.28;101768.94;5039675;28;20190;-55
2023/04/21 01:54:53;;;;;;;11.90;8.83;;;11.00;77.70;;;13.48;55.30;101753.91;5039406;28;20225;-55
2023/04/21 01:57:22;;;;;;;11.20;8.50;;;11.00;77.60;;;13.43;55.37;101756.22;5039911;28;20190;-56
2023/04/21 01:59:49;;;;;;;9.60;8.60;;;10.90;77.60;;;13.43;55.56;101766.00;5039334;28;20273;-59
2023/04/21 02:02:15;;;;;;;13.10;9.00;;;10.90;77.50;;;13.40;55.49;101768.97;5039748;28;20186;-58
2023/04/21 02:04:42;;;;;;;10.20;8.13;;;10.90;77.70;;;13.40;55.60;101761.88;5039142;28;20218;-56
2023/04/21 02:07:09;;;;;;;14.13;8.37;;;10.90;77.70;;;13.42;55.37;101769.63;5039734;28;20248;-58
2023/04/21 02:09:36;;;;;;;13.13;9.60;;;10.90;77.70;;;13.38;55.59;101758.53;5039596;28;20652;-57
2023/04/21 02:12:04;;;;;;;12.23;8.83;;;10.90;77.80;;;13.38;55.55;101753.25;5039579;28;20224;-56
2023/04/21 02:14:32;;;;;;;11.07;9.10;;;10.90;77.70;;;13.36;55.68;101757.88;5052635;28;20222;-55
2023/04/21 02:17:02;;;;;;;13.73;7.97;;;10.90;77.90;;;13.35;55.60;101748.31;5036631;28;20190;-54
2023/04/21 02:19:29;;;;;;;11.53;9.03;;;10.90;77.90;;;13.35;55.51;101750.13;5036382;28;20195;-58
2023/04/21 02:21:56;;;;;;;11.53;9.43;;;10.90;77.80;;;13.34;55.63;101757.22;5017043;28;20726;-56
2023/04/21 02:24:23;;;;;;;9.27;7.77;;;10.90;78.10;;;13.34;55.58;101757.22;5016341;28;20773;-57
2023/04/21 02:26:50;;;;;;;10.20;7.77;;;10.90;77.90;;;13.34;55.63;101765.16;5016396;28;20195;-57
2023/04/21 02:29:17;;;;;;;15.47;7.93;;;10.80;77.90;;;13.32;55.63;101753.94;5016334;28;20648;-58
2023/04/21 02:31:45;;;;;;;11.77;9.10;;;10.90;78.00;;;13.32;55.71;101761.84;5033768;28;20195;-57
2023/04/21 02:34:29;;;;;;;10.37;9.30;;;10.90;78.00;;;13.30;55.58;101755.91;5035570;28;20927;-54
2023/04/21 02:36:56;;;;;;;10.97;8.90;;;10.80;77.90;;;13.31;55.79;101757.56;5036322;28;20186;-55
2023/04/21 02:39:22;;;;;;;10.83;8.53;;;10.80;78.00;;;13.29;55.58;101751.63;5036237;28;20225;-54
2023/04/21 02:41:49;;;;;;;13.33;8.07;;;10.80;78.00;;;13.30;55.46;101749.78;5036130;28;20258;-55
2023/04/21 02:44:16;;;;;;;12.70;8.50;;;10.90;78.10;;;13.32;55.65;101761.03;5036079;28;20221;-56
2023/04/21 02:46:45;;;;;;;13.23;9.57;;;10.80;77.90;;;13.32;55.58;101753.09;5036096;28;20730;-58
2023/04/21 02:49:12;;;;;;;11.80;8.83;;;10.80;77.90;;;13.30;55.80;101752.44;5034729;28;20225;-57
2023/04/21 02:51:39;;;;;;;9.50;8.53;;;10.90;78.00;;;13.30;55.88;101763.03;5035419;28;20194;-55
2023/04/21 02:54:06;;;;;;;13.10;8.47;;;10.80;77.90;;;13.30;55.79;101745.34;5035576;28;20594;-55
2023/04/21 02:56:33;;;;;;;8.73;7.80;;;10.90;78.00;;;13.28;55.84;101751.78;5035570;28;20214;-55
2023/04/21 02:59:00;;;;;;;12.50;8.50;;;10.90;78.20;;;13.29;55.72;101748.97;5034596;28;20203;-56
2023/04/21 03:01:27;;;;;;;9.90;8.80;;;10.90;78.10;;;13.31;55.81;101744.34;5034644;28;20214;-55
2023/04/21 03:03:55;;;;;;;12.27;9.17;;;10.90;78.00;;;13.30;55.79;101745.34;5034561;28;20190;-57
2023/04/21 03:06:23;;;;;;;11.50;8.30;;;10.90;78.00;;;13.28;55.94;101749.97;5035207;28;20260;-59
2023/04/21 03:08:50;;;;;;;9.83;8.27;;;10.90;77.90;;;13.26;55.76;101757.25;5035578;28;20646;-59
2023/04/21 03:11:17;;;;;;;10.03;7.20;;;10.90;77.90;;;13.28;55.89;101751.78;5034983;28;20201;-59
2023/04/21 03:13:44;;;;;;;12.50;8.63;;;10.90;77.90;;;13.31;55.66;101741.69;5034496;28;20281;-58
2023/04/21 03:16:12;;;;;;;10.60;7.87;;;10.90;77.90;;;13.34;55.46;101751.94;5035579;28;20548;-58
2023/04/21 03:18:39;;;;;;;9.33;8.03;;;10.90;77.90;;;13.33;55.42;101734.44;5035860;28;20200;-58
2023/04/21 03:21:07;;;;;;;10.27;8.03;;;10.90;77.90;;;13.35;55.50;101743.03;5035718;28;20534;-55
2023/04/21 03:23:34;;;;;;;10.27;7.63;;;10.90;77.70;;;13.33;55.60;101744.19;5035372;28;20191;-62
2023/04/21 03:26:06;;;;;;;9.13;8.03;;;10.90;77.70;;;13.32;55.26;101745.16;5035045;28;20250;-58
2023/04/21 03:28:33;;;;;;;11.13;8.77;;;10.80;77.60;;;13.30;55.38;101742.69;5035679;28;20195;-57
2023/04/21 03:31:00;;;;;;;11.57;7.87;;;10.80;77.60;;;13.28;55.55;101736.75;5035549;28;20194;-58
2023/04/21 03:33:27;;;;;;;14.07;8.03;;;10.80;77.70;;;13.27;55.50;101740.38;5034484;28;20191;-57
2023/04/21 03:35:53;;;;;;;12.93;8.43;;;10.80;77.70;;;13.28;55.27;101734.13;5034901;28;20253;-57
2023/04/21 03:38:22;;;;;;;13.30;8.83;;;10.80;77.60;;;13.26;55.49;101733.47;5034905;28;20277;-58
2023/04/21 03:40:49;;;;;;;11.93;8.23;;;10.80;77.70;;;13.27;55.51;101740.38;5033954;28;20647;-58
2023/04/21 03:43:16;;;;;;;13.03;8.67;;;10.80;77.70;;;13.30;55.58;101749.78;5034652;28;20221;-58
2023/04/21 03:45:43;;;;;;;9.10;8.10;;;10.80;77.70;;;13.30;55.42;101737.41;5034507;28;20211;-59
2023/04/21 03:48:10;;;;;;;14.73;8.47;;;10.80;77.70;;;13.30;55.42;101734.78;5035095;28;20214;-55
2023/04/21 03:50:38;;;;;;;12.10;8.20;;;10.80;77.70;;;13.32;55.46;101738.06;5034392;28;20187;-56
2023/04/21 03:53:05;;;;;;;13.67;8.63;;;10.80;77.60;;;13.32;55.40;101738.06;5034879;28;20197;-59
2023/04/21 03:55:33;;;;;;;12.20;8.53;;;10.80;77.70;;;13.35;55.26;101735.09;5033924;28;20198;-56
2023/04/21 03:58:00;;;;;;;9.97;7.93;;;10.80;77.70;;;13.34;55.35;101733.44;5034459;28;20198;-59
2023/04/21 04:00:26;;;;;;;12.10;8.30;;;10.80;77.70;;;13.36;55.18;101739.38;5034093;28;20196;-54
2023/04/21 04:02:53;;;;;;;12.80;7.93;;;10.80;77.70;;;13.35;55.34;101732.44;5034090;28;20638;-58
2023/04/21 04:05:21;;;;;;;11.73;8.30;;;10.80;77.60;;;13.38;55.06;101729.44;5034225;28;20261;-56
2023/04/21 04:07:48;;;;;;;13.30;8.27;;;10.80;77.50;;;13.36;55.12;101734.09;5034547;28;20195;-57
2023/04/21 04:10:15;;;;;;;9.67;8.23;;;10.80;77.40;;;13.36;55.01;101742.00;5034182;28;20194;-57
2023/04/21 04:12:43;;;;;;;11.77;8.30;;;10.80;77.50;;;13.35;55.17;101735.09;5034041;28;20532;-57
2023/04/21 04:15:10;;;;;;;12.70;8.27;;;10.80;77.50;;;13.33;55.23;101729.16;5033203;28;20670;-56
2023/04/21 04:17:37;;;;;;;10.93;7.67;;;10.80;77.50;;;13.34;54.93;101728.13;5049693;28;20199;-56
2023/04/21 04:20:07;;;;;;;14.07;7.70;;;10.80;77.40;;;13.36;55.04;101728.00;5034125;28;20633;-55
2023/04/21 04:22:34;;;;;;;15.40;9.30;;;10.80;77.50;;;13.37;55.05;101729.63;5033969;28;20190;-57
2023/04/21 04:25:01;;;;;;;10.70;7.97;;;10.80;77.50;;;13.41;54.93;101737.06;5033669;28;20264;-55
2023/04/21 04:27:28;;;;;;;13.73;8.07;;;10.80;77.60;;;13.43;54.90;101740.34;5033971;28;20190;-56
2023/04/21 04:29:56;;;;;;;16.10;9.10;;;10.80;77.50;;;13.45;54.71;101742.84;5033255;28;20270;-59
2023/04/21 04:32:27;;;;;;;12.37;8.00;;;10.90;77.50;;;13.46;54.88;101744.47;5033931;28;20198;-56
2023/04/21 04:34:57;;;;;;;15.30;8.57;;;10.90;77.50;;;13.48;54.68;101747.78;5033526;28;20301;-57
2023/04/21 04:37:24;;;;;;;9.70;8.70;;;10.90;77.40;;;13.49;54.50;101749.44;5033228;28;20209;-56
2023/04/21 04:39:52;;;;;;;14.43;8.37;;;10.90;77.50;;;13.50;54.66;101751.91;5033294;28;20217;-56
2023/04/21 04:42:19;;;;;;;9.67;7.73;;;10.90;77.30;;;13.52;54.50;101747.28;5033467;28;20214;-59
2023/04/21 04:44:46;;;;;;;8.70;6.83;;;10.90;78.00;;;13.53;54.47;101748.94;5032893;28;20214;-58
2023/04/21 04:47:15;;;;;;;11.83;7.43;;;10.90;77.00;;;13.54;54.45;101750.59;5033511;28;20312;-56
2023/04/21 04:49:42;;;;;;;11.80;8.17;;;10.90;77.00;;;13.57;54.41;101757.38;5033152;28;20201;-58
2023/04/21 04:52:09;;;;;;;9.43;7.63;;;10.90;77.00;;;13.61;54.48;101763.13;5033362;28;20194;-55
2023/04/21 04:54:36;;;;;;;11.67;7.83;;;10.90;77.00;;;13.62;54.25;101765.59;5033275;28;20214;-60
2023/04/21 04:57:03;;;;;;;15.80;9.03;;;11.00;76.90;;;13.66;54.18;101763.47;5033425;28;20243;-58
2023/04/21 04:59:30;;;;;;;11.43;8.00;;;11.00;76.90;;;13.68;54.06;101764.94;5032975;28;20517;-58
2023/04/21 05:01:57;;;;;;;12.97;7.53;;;11.00;76.90;;;13.71;54.12;101763.78;5031980;28;20232;-58
2023/04/21 05:04:25;;;;;;;11.73;8.23;;;11.00;76.80;;;13.73;53.94;101767.06;5033284;28;20218;-59
2023/04/21 05:06:53;;;;;;;12.90;8.03;;;11.10;76.70;;;13.73;54.03;101761.78;5031946;28;20768;-56
2023/04/21 05:09:20;;;;;;;12.50;8.23;;;11.10;76.70;;;13.73;54.07;101767.06;5031833;28;20206;-55
2023/04/21 05:11:47;;;;;;;13.17;8.70;;;11.10;76.60;;;13.72;53.82;101757.47;5033788;28;20194;-59
2023/04/21 05:14:14;;;;;;;11.93;8.20;;;11.10;76.50;;;13.72;54.06;101760.13;5034173;28;20226;-58
2023/04/21 05:16:42;;;;;;;12.93;8.60;;;11.10;76.50;;;13.71;54.02;101774.34;5034361;28;20560;-58
2023/04/21 05:19:09;;;;;;;10.73;8.57;;;11.10;76.40;;;13.75;53.94;101773.00;5033338;28;20562;-59
2023/04/21 05:21:37;;;;;;;12.97;8.67;;;11.10;76.50;;;13.77;53.83;101768.38;5032017;28;20202;-60
2023/04/21 05:24:05;;;;;;;10.03;8.33;;;11.10;76.40;;;13.83;53.85;101763.25;5031163;28;20233;-55
2023/04/21 05:26:31;;;;;;;12.70;8.37;;;11.20;76.60;;;13.88;53.86;101766.19;5044242;28;20215;-58
2023/04/21 05:28:58;;;;;;;12.83;7.60;;;11.20;76.50;;;13.92;53.70;101766.69;5013197;28;20195;-58
2023/04/21 05:31:26;;;;;;;14.63;8.10;;;11.20;76.30;;;13.96;53.44;101762.69;5027593;28;20194;-59
2023/04/21 05:33:53;;;;;;;9.93;7.90;;;11.30;76.30;;;14.01;53.57;101765.66;5047493;28;20397;-60
2023/04/21 05:36:20;;;;;;;13.50;9.00;;;11.30;76.10;;;14.03;53.42;101759.19;5033279;28;20191;-58
2023/04/21 05:38:48;;;;;;;11.93;8.60;;;11.40;76.00;;;14.05;53.13;101759.00;5048198;28;20199;-59
2023/04/21 05:41:15;;;;;;;13.60;8.57;;;11.40;75.80;;;14.10;53.25;101769.91;5032493;28;20206;-57
2023/04/21 05:43:42;;;;;;;11.07;9.50;;;11.40;75.70;;;14.12;53.34;101762.66;5031912;28;20198;-55
2023/04/21 05:46:10;;;;;;;12.57;8.73;;;11.50;75.70;;;14.14;53.18;101765.94;5033988;28;20214;-59
2023/04/21 05:48:37;;;;;;;11.67;9.10;;;11.50;75.50;;;14.18;53.08;101772.53;5033027;28;20315;-59
2023/04/21 05:51:09;;;;;;;12.93;8.87;;;11.60;75.40;;;14.23;52.90;101775.50;5036546;28;20198;-59
2023/04/21 05:53:36;;;;;;;13.67;9.20;;;11.60;75.30;;;14.26;52.88;101768.00;5036530;28;20213;-58
2023/04/21 05:56:07;;;;;;;13.53;8.90;;;11.60;75.10;;;14.34;52.67;101764.53;5035208;28;20225;-58
2023/04/21 05:58:34;;;;;;;11.67;7.90;;;11.70;75.00;;;14.41;52.58;101762.84;5036610;28;20191;-58
2023/04/21 06:01:02;;;;;;;12.03;7.73;;;11.80;75.00;;;14.48;52.45;101761.16;5036042;28;20191;-56
2023/04/21 06:03:30;;;;;;;12.50;8.53;;;11.80;74.80;;;14.53;52.28;101763.28;5035952;28;20194;-56
2023/04/21 06:06:00;;;;;;;14.40;9.33;;;11.90;74.50;;;14.56;52.20;101757.63;5036612;28;20639;-58
2023/04/21 06:08:27;;;;;;;14.73;8.23;;;11.90;74.20;;;14.60;52.13;101759.75;5037474;28;20203;-59
2023/04/21 06:10:54;;;;;;;13.13;9.40;;;12.00;74.10;;;14.66;51.96;101753.75;5035931;28;20197;-58
2023/04/21 06:13:22;;;;;;;11.63;9.40;;;12.00;73.80;;;14.69;51.70;101749.94;5036315;28;20209;-58
2023/04/21 06:15:49;;;;;;;11.90;8.87;;;12.10;73.70;;;14.75;51.54;101754.53;5035341;28;20230;-59
2023/04/21 06:18:16;;;;;;;16.33;9.10;;;12.10;73.50;;;14.78;51.58;101747.06;5051392;28;20233;-57
2023/04/21 06:20:49;;;;;;;10.57;8.13;;;12.20;73.30;;;14.84;51.36;101748.97;5035992;28;20378;-55
2023/04/21 06:23:17;;;;;;;10.53;8.67;;;12.30;73.30;;;14.88;51.35;101742.31;5034513;28;20190;-59
2023/04/21 06:25:44;;;;;;;13.70;8.90;;;12.30;73.10;;;14.96;51.30;101745.91;5035895;28;20210;-60
2023/04/21 06:28:11;;;;;;;11.17;8.53;;;12.40;73.00;;;15.06;51.02;101744.66;5035596;28;20193;-60
2023/04/21 06:30:40;;;;;;;11.90;8.17;;;12.50;73.00;;;15.18;50.99;101745.88;5035497;28;20198;-57
2023/04/21 06:33:06;;;;;;;14.77;8.63;;;12.50;72.80;;;15.25;50.68;101749.47;5036041;28;20190;-57
2023/04/21 06:35:34;;;;;;;11.47;8.80;;;12.50;72.40;;;15.31;50.46;101751.38;5035825;28;20284;-57
2023/04/21 06:38:01;;;;;;;10.37;8.30;;;12.70;72.30;;;15.41;50.38;101740.53;5035558;28;20190;-58
2023/04/21 06:40:28;;;;;;;9.57;8.27;;;12.70;72.10;;;15.50;50.11;101745.59;5035633;28;20567;-56
2023/04/21 06:42:55;;;;;;;10.93;8.37;;;12.80;72.10;;;15.58;50.23;101744.69;5035149;28;20682;-55
2023/04/21 06:45:22;;;;;;;11.00;8.40;;;12.90;71.70;;;15.68;49.71;101744.41;5035429;28;20218;-57
2023/04/21 06:47:50;;;;;;;11.10;8.03;;;13.00;71.60;;;15.75;49.56;101727.59;5035480;28;20206;-59
2023/04/21 06:50:17;;;;;;;13.87;9.10;;;13.00;71.40;;;15.83;49.25;101719.50;5036023;28;20194;-59
2023/04/21 06:52:44;;;;;;;14.87;10.17;;;13.10;71.10;;;15.87;49.35;101725.28;5035457;28;20201;-58
2023/04/21 06:55:11;;;;;;;11.97;8.97;;;13.20;70.70;;;15.96;49.15;101727.66;5035482;28;20215;-59
2023/04/21 06:57:38;;;;;;;9.30;8.03;;;13.30;70.60;;;16.02;48.83;101726.91;5035155;28;20197;-56
2023/04/21 07:00:07;;;;;;;11.37;8.93;;;13.40;70.50;;;16.13;49.18;101726.44;5035592;28;20194;-58
2023/04/21 07:02:34;;;;;;;12.03;9.60;;;13.50;70.60;;;16.22;48.65;101725.31;5035473;28;20195;-58
2023/04/21 07:05:03;;;;;;;11.27;8.87;;;13.50;70.20;;;16.34;48.31;101719.50;5035142;28;20305;-55
2023/04/21 07:07:30;;;;;;;13.10;7.90;;;13.60;70.00;;;16.42;48.31;101722.06;5035015;28;20213;-59
2023/04/21 07:09:57;;;;;;;11.27;8.83;;;13.70;69.60;;;16.50;48.34;101720.09;5034923;28;20245;-57
2023/04/21 07:12:24;;;;;;;10.00;7.90;;;13.80;69.50;;;16.60;47.94;101725.13;5035413;28;20218;-55
2023/04/21 07:14:51;;;;;;;12.83;8.07;;;13.90;69.30;;;16.71;47.66;101725.44;5034609;28;20221;-56
2023/04/21 07:17:18;;;;;;;10.57;8.43;;;14.00;69.10;;;16.84;47.49;101716.78;5035622;28;20206;-60
2023/04/21 07:19:45;;;;;;;9.17;7.87;;;14.10;68.70;;;16.94;47.57;101719.94;5037123;28;20195;-56
2023/04/21 07:22:13;;;;;;;11.03;7.90;;;14.20;68.60;;;17.02;47.16;101724.31;5037177;28;20190;-58
2023/04/21 07:24:40;;;;;;;13.17;8.47;;;14.30;68.00;;;17.12;46.93;101714.97;5036359;28;20214;-58
2023/04/21 07:27:07;;;;;;;9.47;8.57;;;14.40;67.90;;;17.28;46.57;101713.88;5036572;28;20221;-61
2023/04/21 07:29:34;;;;;;;10.80;8.17;;;14.50;67.50;;;17.73;45.97;101715.19;5034441;28;20207;-62
2023/04/21 07:32:01;;;;;;;16.87;8.13;;;14.70;67.70;;;18.40;45.52;101712.56;5016979;28;20259;-56
2023/04/21 07:34:28;;;;;;;9.77;7.47;;;15.00;68.00;;;19.17;44.04;101707.50;5034214;28;20742;-59
2023/04/21 07:36:55;;;;;;;12.23;7.87;;;15.40;67.00;;;19.88;42.39;101697.72;5033588;28;20189;-58
2023/04/21 07:39:24;;;;;;;9.90;7.23;;;15.90;64.90;;;20.66;41.11;101699.97;5033948;28;20631;-57
2023/04/21 07:41:51;;;;;;;8.60;7.80;;;16.50;63.70;;;21.43;39.07;101702.22;5034017;28;20206;-57
2023/04/21 07:44:17;;;;;;;10.17;7.83;;;17.10;61.70;;;22.15;37.94;101698.69;5034251;28;20221;-58
2023/04/21 07:46:44;;;;;;;10.40;7.53;;;17.70;59.70;;;22.86;36.11;101698.69;5031986;28;20221;-58
2023/04/21 07:49:12;;;;;;;11.43;7.53;;;18.20;57.30;;;23.58;35.09;101693.06;5029939;28;20191;-57
2023/04/21 07:51:40;;;;;;;10.97;8.00;;;18.80;56.50;;;24.02;33.94;101689.66;5017028;28;20583;-61
2023/04/21 07:54:07;;;;;;;12.27;9.60;;;19.40;54.50;;;24.59;32.65;101685.09;5014884;28;20210;-58
2023/04/21 07:56:35;;;;;;;10.07;7.70;;;19.90;53.00;;;25.17;32.22;101688.22;5019938;28;20592;-59
2023/04/21 07:59:02;;;;;;;9.77;8.07;;;20.40;52.10;;;25.91;30.80;101691.34;5034286;28;20202;-56
2023/04/21 08:01:29;;;;;;;10.90;9.47;;;20.90;50.70;;;26.52;30.13;101685.53;5033436;28;20225;-54
2023/04/21 08:03:56;;;;;;;8.67;7.77;;;21.50;49.70;;;27.26;29.06;101685.56;5033573;28;20206;-59
2023/04/21 08:06:23;;;;;;;10.53;7.00;;;22.00;47.90;;;27.78;28.22;101682.84;5033398;28;20197;-59
2023/04/21 08:08:56;;;;;;;8.33;7.53;;;22.50;46.30;;;28.25;27.53;101688.13;5034337;28;20634;-59
2023/04/21 08:11:27;;;;;;;11.60;7.27;;;23.00;45.10;;;28.69;26.51;101679.25;5035616;28;20222;-58
2023/04/21 08:13:58;;;;;;;9.37;7.30;;;23.50;43.50;;;29.01;25.89;101675.41;5034683;28;20240;-60
2023/04/21 08:16:26;;;;;;;16.40;7.33;;;23.90;41.60;;;29.31;25.66;101670.75;5030726;28;20187;-59
2023/04/21 08:18:53;;;;;;;10.03;7.00;;;24.30;40.50;;;29.50;25.25;101685.34;5022785;28;20290;-61
2023/04/21 08:21:20;;;;;;;8.87;7.50;;;24.50;39.00;;;29.83;24.92;101680.34;5036499;28;20601;-59
2023/04/21 08:23:47;;;;;;;9.00;6.90;;;24.80;39.70;;;30.35;23.90;101677.88;5034944;28;20219;-60
2023/04/21 08:26:14;;;;;;;7.23;6.57;;;25.10;38.50;;;30.86;24.04;101680.19;5033606;28;20304;-57
2023/04/21 08:28:41;;;;;;;14.87;9.47;;;25.40;38.30;;;31.28;23.13;101681.13;5033863;28;20198;-55
2023/04/21 08:31:09;;;;;;;10.40;8.10;;;25.70;37.30;;;31.67;22.74;101675.47;5033615;28;20212;-62
2023/04/21 08:33:39;;;;;;;8.37;6.80;;;26.00;36.20;;;31.90;22.20;101680.06;5034153;28;20190;-60
2023/04/21 08:36:24;;;;;;;10.03;7.40;;;26.30;35.60;;;32.15;22.27;101675.38;5034669;28;20233;-61
2023/04/21 08:39:02;;;;;;;8.37;6.23;;;26.60;35.10;;;32.48;22.31;101677.84;5037188;28;20267;-61
2023/04/21 08:41:30;;;;;;;11.07;7.33;;;26.90;35.20;;;32.69;21.27;101664.69;5051547;28;20296;-62
2023/04/21 08:43:58;;;;;;;8.37;7.03;;;27.00;33.30;;;32.69;21.18;101670.16;5034194;28;20240;-59
2023/04/21 08:46:31;;;;;;;7.60;6.80;;;27.10;32.50;;;32.69;21.16;101664.69;5033868;28;20214;-59
2023/04/21 08:48:59;;;;;;;8.20;7.00;;;27.40;32.80;;;32.82;21.18;101663.94;5033181;28;20245;-62
2023/04/21 08:51:27;;;;;;;9.10;7.07;;;27.40;32.20;;;33.01;20.69;101651.03;5034092;28;20282;-60
2023/04/21 08:53:54;;;;;;;8.37;6.40;;;27.60;32.00;;;33.27;20.67;101654.91;5048252;28;20686;-61
2023/04/21 08:56:25;;;;;;;12.43;7.20;;;27.70;31.60;;;33.40;20.22;101662.25;5033643;28;20285;-58
2023/04/21 08:58:52;;;;;;;7.40;6.33;;;27.80;30.80;;;33.47;19.87;101656.41;5032045;28;20191;-59
2023/04/21 09:01:20;;;;;;;8.83;6.90;;;28.00;30.70;;;33.62;19.70;101655.28;5032051;28;20218;-58
2023/04/21 09:03:48;;;;;;;9.97;6.70;;;28.10;30.40;;;33.81;19.77;101647.75;5032383;28;20652;-59
2023/04/21 09:06:19;;;;;;;9.13;7.00;;;28.30;30.00;;;34.01;19.67;101641.84;5031485;28;20208;-59
2023/04/21 09:08:56;;;;;;;11.17;8.20;;;28.50;30.00;;;34.18;18.87;101650.22;5016190;28;20218;-61
2023/04/21 09:11:53;;;;;;;9.80;6.93;;;28.50;29.40;;;34.14;19.03;101646.44;5033996;28;20207;-59
2023/04/21 09:14:20;;;;;;;10.20;7.07;;;28.70;29.00;;;34.29;19.27;101648.81;5036125;28;20213;-59
2023/04/21 09:16:59;;;;;;;8.73;6.43;;;28.80;29.20;;;34.78;18.67;101645.13;5032749;28;20214;-59
2023/04/21 09:19:29;;;;;;;12.27;7.30;;;29.00;28.80;;;35.14;18.40;101644.97;5032397;28;20579;-58
2023/04/21 09:21:59;;;;;;;8.18;6.75;;;29.20;28.80;;;35.39;17.27;101644.25;5012278;28;20211;-58
2023/04/21 09:24:26;;;;;;;7.17;6.47;;;29.40;28.00;;;35.49;17.90;101641.22;5026442;28;20240;-61
2023/04/21 09:26:54;;;;;;;6.53;5.93;;;29.50;27.30;;;35.24;17.12;101636.47;5056495;28;20263;-59
2023/04/21 09:29:22;;;;;;;9.10;6.30;;;29.60;27.10;;;35.26;17.56;101634.22;5056556;28;20200;-61
2023/04/21 09:31:51;;;;;;;8.25;6.25;;;29.70;27.30;;;35.41;17.49;101631.03;5056454;28;20300;-63
2023/04/21 09:34:23;;;;;;;7.72;6.00;;;29.90;27.20;;;35.62;17.82;101631.25;5057145;28;20620;-60
2023/04/21 09:37:01;;;;;;;6.85;5.68;;;30.00;27.10;;;35.92;16.79;101633.84;5057418;28;20292;-58
2023/04/21 09:39:30;;;;;;;6.68;5.95;;;30.10;26.50;;;36.03;16.73;101625.34;5057191;28;20343;-60
2023/04/21 09:42:12;;;;;;;7.18;5.90;;;30.20;26.20;;;36.13;16.61;101625.81;5053173;28;20202;-59
2023/04/21 09:44:39;;;;;;;9.88;5.60;;;30.30;26.20;;;36.41;16.74;101626.25;5036350;28;20679;-61
2023/04/21 09:47:23;;;;;;;8.73;6.05;;;30.50;26.40;;;36.68;16.08;101623.16;5036739;28;20209;-59
2023/04/21 09:49:55;;;;;;;6.75;6.15;;;30.70;26.10;;;37.05;15.73;101619.59;5037491;28;20198;-59
2023/04/21 09:52:27;;;;;;;7.00;6.07;;;30.90;25.80;;;37.37;16.00;101615.38;5052465;28;20306;-60
2023/04/21 09:55:03;;;;;;;6.43;5.63;;;31.10;25.20;;;37.78;15.33;101611.84;5036194;28;20234;-62
2023/04/21 09:57:36;;;;;;;6.72;5.80;;;31.40;25.30;;;38.21;15.17;101606.78;5036864;28;20179;-59
2023/04/21 10:00:08;;;;;;;6.95;5.90;;;31.60;25.00;;;38.34;14.99;101611.22;5037457;28;20206;-58
2023/04/21 10:02:43;;;;;;;6.82;5.40;;;31.90;24.60;;;38.42;14.46;101606.75;5037825;28;20709;-59
2023/04/21 10:05:11;;;;;;;7.45;6.35;;;31.90;23.50;;;37.92;14.57;101593.97;5036723;28;20214;-61
2023/04/21 10:07:40;;;;;;;6.18;5.60;;;31.90;23.20;;;38.03;14.75;101593.56;5035379;28;20253;-57
2023/04/21 10:10:17;;;;;;;8.15;6.15;;;32.10;23.80;;;38.24;14.86;101589.59;5035932;28;20195;-59
2023/04/21 10:12:45;;;;;;;7.75;6.05;;;32.10;24.00;;;38.48;14.43;101589.69;5036892;28;20222;-59